Warroad, Minnesota
Current Conditions -  °F | °C
As of 12:34 PM on Friday 31 Oct 2014 (Local Time) from KRRT Reporting Station
Clear Clear  
Wind Chill: 30°   Ceiling: Unl
Heat Index: 34°   Visibility: 10mi
Dew Point: 25°   Wind: 5mph
Humidity: 70%   Direction: 210°SSW
Pressure: 30.56"   Gusts: NA
Location:  48.91°N, 95.32°W
Report Text: KRRT 311734Z AUTO 21004KT 10SM CLR 01/M04 A3056 RMK AO2
Loading
Personal Weather Stations






























Interactive Weather Map
Tropical Storm Tracking
New forecast layout! Learn more

10-Day Weather Forecast

Advertisements
Track Severe Weather on mobile